航空気象通報

ウインドサーファーのための航空気象通報による風予報です。

10/12-10/14の航空気象通報

2016年10月12日 23時09分04秒 | TAF

羽田空港
TAF RJTT 121105Z 1212/1318 10006KT 9999 FEW030
BECMG 1212/1214 04014KT
日本時間12日21時:100度から6ノットの風
21-23時:風が変化
23時-14日03時:040度から14ノットの風

静岡空港
TAF RJNS 121106Z 1212/1318 34004KT 9999 FEW015 SCT025
BECMG 1221/1223 06006KT
BECMG 1309/1312 36004KT
日本時間12日21時-13日06時:340度から4ノットの風
06-08時:風が変化
08-18時:060度から6ノットの風
18-21時:風が変化
21時-14日03時:360度から4ノットの風

福岡空港
TAF RJFF 121105Z 1212/1318 05005KT 9999 FEW030
BECMG 1215/1217 14003KT
BECMG 1222/1224 03008KT
BECMG 1315/1318 14003KT
日本時間12日21-24時:050度から5ノットの風
13日00-02時:風が変化
02-07時:140度から3ノットの風
07-09時:風が変化
09-24時:030度から8ノットの風
14日00-03時:風が変化
03時:140度から3ノットの風

那覇空港
TAF ROAH 121107Z 1212/1318 03010KT 9999 FEW010 SCT020
TEMPO 1303/1309 4000 SHRA
日本時間12日21時-14日03時:030度から10ノットの風

但し、13日12-18時の間:ときどき

石垣空港
TAF ROIG 121109Z 1212/1318 04015KT 9999 SCT010 BKN020
日本時間12日21時-14日03時:040度から15ノットの風

マウイのカフルイ空港
PHOG 121120Z 1212/1312 05009G14KT P6SM FEW030 BKN050
FM122000 06018G27KT P6SM FEW030 SCT050
FM130400 05011G17KT P6SM FEW030 SCT050 AMD LTD TO VIS AND WIND TIL 121600
ハワイ時間12日02-10時:050度から9ノット、突風14ノット

10-18時:060度から18ノット、突風27ノット
18時-13日02時:050度から11ノット、突風17ノット

サイパン空港
TAF PGSN 121130Z 1212/1312 09010KT P6SM VCSH SCT020 SCT040 BKN110
マリアナ時間12日22時-14日22時:090度から10ノットの風

ジャンル:
お天気
コメント   この記事についてブログを書く
この記事をはてなブックマークに追加
« 10/11-10/13の航空気象通報 | トップ | 10/14-10/16の航空気象通報 »
最近の画像もっと見る

コメントを投稿

ブログ作成者から承認されるまでコメントは反映されません。

コメント利用規約に同意の上コメント投稿を行ってください。

数字4桁を入力し、投稿ボタンを押してください。

あわせて読む

トラックバック

この記事のトラックバック  Ping-URL
ブログ作成者から承認されるまでトラックバックは反映されません。
  • 30日以上前の記事に対するトラックバックは受け取らないよう設定されております。
  • 送信元の記事内容が半角英数のみのトラックバックは受け取らないよう設定されております。
  • このブログへのリンクがない記事からのトラックバックは受け取らないよう設定されております。
  • ※ブログ管理者のみ、編集画面で設定の変更が可能です。